Terminal Aerodrome Forecast
Issued by NWS

Home | Current Version | Previous Version | Graphics & Text | Print | Product List | Glossary On
Versions: 1 2 3 4 5 6 7 8 9 10 11 12 13 14 15 16 17 18 19 20
000
FTUS43 KABR 280523
TAFMBG
TAF
KMBG 280523Z 2806/2906 04010KT P6SM -RA BKN040 OVC060
      TEMPO 2806/2809 3SM -SNRA
     FM280900 04009KT 5SM -SNRA OVC015
     FM281400 05009KT P6SM VCSH OVC025
     FM281700 07009KT P6SM OVC050=

USA.gov is the U.S. government's official web portal to all federal, state and local government web resources and services.